Time;durP1;ratioP1;P1;durP2;ratioP2;P2;SDS_P1;SDS_P2;PMS_P1;PMS_P2;Temp;Humidity;BMP_temperature;BMP_pressure;BME280_temperature;BME280_humidity;BME280_pressure;Samples;Min_cycle;Max_cycle;Signal;HPM_P1;HPM_P2
2024/01/27 00:00:19;;;;;;;18.63;7.23;;;;;20.60;102246.00;;;;2077387;28;20213;-63
2024/01/27 00:01:19;;;;;;;13.50;6.60;;;;;20.80;102244.00;;;;2076816;28;20279;-61
2024/01/27 00:02:20;;;;;;;17.23;7.30;;;;;21.00;102237.00;;;;2073523;28;20260;-62
2024/01/27 00:03:20;;;;;;;15.07;7.27;;;;;21.10;102247.00;;;;2075682;28;20213;-62
2024/01/27 00:04:20;;;;;;;12.80;7.10;;;;;21.20;102242.00;;;;2058459;28;20218;-62
2024/01/27 00:05:21;;;;;;;12.13;6.70;;;;;21.30;102245.00;;;;2073522;28;20248;-65
2024/01/27 00:06:21;;;;;;;14.50;5.83;;;;;21.30;102246.00;;;;2069709;28;20218;-59
2024/01/27 00:07:22;;;;;;;16.93;7.20;;;;;21.40;102257.00;;;;2076663;28;20210;-59
2024/01/27 00:08:22;;;;;;;17.50;7.90;;;;;21.40;102253.00;;;;2064651;28;20278;-61
2024/01/27 00:09:22;;;;;;;17.17;7.40;;;;;21.40;102257.00;;;;2067441;28;20205;-63
2024/01/27 00:10:22;;;;;;;14.40;6.37;;;;;21.40;102268.00;;;;2071026;28;21020;-64
2024/01/27 00:11:25;;;;;;;11.07;5.97;;;;;21.40;102268.00;;;;2077530;28;20666;-61
2024/01/27 00:12:26;;;;;;;12.95;6.05;;;;;21.40;102263.00;;;;2074312;28;20267;-62
2024/01/27 00:13:26;;;;;;;10.07;5.80;;;;;21.30;102269.00;;;;2064896;28;20281;-63
2024/01/27 00:14:27;;;;;;;16.57;6.60;;;;;21.30;102263.00;;;;2065907;28;20627;-59
2024/01/27 00:15:27;;;;;;;11.73;7.27;;;;;21.30;102259.00;;;;2067997;28;21052;-59
2024/01/27 00:16:28;;;;;;;15.63;7.07;;;;;21.30;102264.00;;;;2076645;28;20205;-66
2024/01/27 00:17:28;;;;;;;13.60;7.00;;;;;21.30;102261.00;;;;2073514;28;20898;-65
2024/01/27 00:18:28;;;;;;;10.17;6.00;;;;;21.30;102267.00;;;;2075821;28;20206;-62
2024/01/27 00:19:29;;;;;;;12.90;6.77;;;;;21.30;102263.00;;;;2067286;28;20752;-60
2024/01/27 00:20:29;;;;;;;14.33;6.80;;;;;21.30;102256.00;;;;2065308;28;20671;-60
2024/01/27 00:21:29;;;;;;;10.00;5.80;;;;;21.30;102257.00;;;;2078469;28;20808;-59
2024/01/27 00:22:30;;;;;;;12.27;6.00;;;;;21.30;102252.00;;;;2068526;28;20229;-58
2024/01/27 00:23:30;;;;;;;11.80;6.30;;;;;21.30;102256.00;;;;2068214;28;20209;-66
2024/01/27 00:24:30;;;;;;;13.17;6.50;;;;;21.30;102266.00;;;;2072227;28;20223;-63
2024/01/27 00:25:31;;;;;;;11.77;6.30;;;;;21.40;102260.00;;;;2078375;28;20222;-61
2024/01/27 00:26:32;;;;;;;10.40;6.80;;;;;21.40;102258.00;;;;2075019;28;20305;-59
2024/01/27 00:27:32;;;;;;;9.03;5.53;;;;;21.40;102253.00;;;;2070961;28;20210;-62
2024/01/27 00:28:33;;;;;;;14.20;6.87;;;;;21.30;102258.00;;;;2061014;28;20217;-61
2024/01/27 00:29:33;;;;;;;9.23;6.30;;;;;21.30;102258.00;;;;2068670;28;20218;-60
2024/01/27 00:30:33;;;;;;;9.77;5.20;;;;;21.30;102253.00;;;;2078074;28;20260;-59
2024/01/27 00:31:34;;;;;;;13.13;6.30;;;;;21.30;102266.00;;;;2072613;28;20206;-59
2024/01/27 00:32:34;;;;;;;10.13;6.27;;;;;21.30;102260.00;;;;2073017;28;20240;-60
2024/01/27 00:33:35;;;;;;;9.47;5.90;;;;;21.30;102082.00;;;;2059885;28;20205;-60
2024/01/27 00:34:36;;;;;;;10.73;5.80;;;;;21.30;102273.00;;;;2072101;28;20292;-59
2024/01/27 00:35:36;;;;;;;10.67;5.70;;;;;21.30;102268.00;;;;2078914;28;20198;-60
2024/01/27 00:36:37;;;;;;;10.80;6.03;;;;;21.30;102277.00;;;;2072891;28;20964;-65
2024/01/27 00:37:37;;;;;;;9.17;5.40;;;;;21.30;102282.00;;;;2078909;28;20229;-62
2024/01/27 00:38:38;;;;;;;10.40;6.13;;;;;21.30;102285.00;;;;2062555;28;20214;-59
2024/01/27 00:39:39;;;;;;;12.07;6.00;;;;;21.30;102292.00;;;;2074035;28;20225;-61
2024/01/27 00:40:39;;;;;;;8.10;5.40;;;;;21.30;102288.00;;;;2073930;28;20210;-64
2024/01/27 00:41:39;;;;;;;10.33;5.13;;;;;21.30;102289.00;;;;2073949;28;20221;-61
2024/01/27 00:42:40;;;;;;;14.73;5.97;;;;;21.30;102286.00;;;;2078904;28;20213;-60
2024/01/27 00:43:40;;;;;;;10.77;5.80;;;;;21.30;102290.00;;;;2062148;28;20209;-59
2024/01/27 00:44:41;;;;;;;9.90;5.13;;;;;21.30;102293.00;;;;2076637;28;20210;-63
2024/01/27 00:45:41;;;;;;;9.63;5.37;;;;;21.30;102291.00;;;;2075275;28;20301;-61
2024/01/27 00:46:41;;;;;;;11.27;4.20;;;;;21.30;102293.00;;;;2078905;28;20215;-63
2024/01/27 00:47:42;;;;;;;10.20;5.70;;;;;21.30;102293.00;;;;2073138;28;20215;-62
2024/01/27 00:48:42;;;;;;;10.90;5.70;;;;;21.30;102299.00;;;;2058504;28;20225;-61
2024/01/27 00:49:45;;;;;;;8.07;4.97;;;;;21.20;102289.00;;;;2078110;28;20300;-60
2024/01/27 00:50:45;;;;;;;10.95;5.75;;;;;21.30;102301.00;;;;2076623;28;20706;-64
2024/01/27 00:51:46;;;;;;;7.77;5.17;;;;;21.20;102297.00;;;;2078616;28;20229;-62
2024/01/27 00:52:46;;;;;;;9.13;5.20;;;;;21.20;102301.00;;;;2068601;28;20219;-61
2024/01/27 00:53:46;;;;;;;7.20;4.73;;;;;21.20;102300.00;;;;2060475;28;20224;-61
2024/01/27 00:54:47;;;;;;;11.50;4.77;;;;;21.20;102302.00;;;;2073280;28;20233;-61
2024/01/27 00:55:48;;;;;;;10.90;5.10;;;;;21.20;102297.00;;;;2074860;28;20213;-59
2024/01/27 00:56:48;;;;;;;9.83;5.87;;;;;21.20;102301.00;;;;2078771;28;20217;-62
2024/01/27 00:57:48;;;;;;;8.87;5.07;;;;;21.20;102299.00;;;;2075022;28;20527;-62
2024/01/27 00:58:49;;;;;;;8.60;5.30;;;;;21.20;102303.00;;;;2068873;28;20215;-61
2024/01/27 00:59:49;;;;;;;10.80;4.90;;;;;21.20;102301.00;;;;2069773;28;20562;-59
2024/01/27 01:00:49;;;;;;;8.80;4.67;;;;;21.20;102303.00;;;;2066887;28;20543;-60
2024/01/27 01:01:50;;;;;;;11.37;4.90;;;;;21.20;102298.00;;;;2065832;28;21069;-60
2024/01/27 01:02:50;;;;;;;8.50;4.80;;;;;21.20;102301.00;;;;2066868;28;20210;-63
2024/01/27 01:03:51;;;;;;;11.03;5.27;;;;;21.20;102290.00;;;;2060764;28;20229;-61
2024/01/27 01:04:51;;;;;;;9.00;4.40;;;;;21.20;102290.00;;;;2067729;28;20218;-60
2024/01/27 01:05:51;;;;;;;9.57;5.10;;;;;21.20;102301.00;;;;2066623;28;20246;-62
2024/01/27 01:06:51;;;;;;;7.90;4.33;;;;;21.20;102301.00;;;;2064858;28;20218;-63
2024/01/27 01:07:52;;;;;;;9.53;5.43;;;;;21.20;102298.00;;;;2070555;28;20214;-61
2024/01/27 01:08:52;;;;;;;10.67;4.27;;;;;21.10;102298.00;;;;2061744;28;20225;-63
2024/01/27 01:09:53;;;;;;;9.70;5.10;;;;;21.10;102307.00;;;;2075047;28;20215;-64
2024/01/27 01:10:53;;;;;;;13.07;5.17;;;;;21.20;102298.00;;;;2078478;28;20271;-61
2024/01/27 01:11:53;;;;;;;6.63;4.13;;;;;21.20;102294.00;;;;2070859;28;20210;-59
2024/01/27 01:12:54;;;;;;;7.73;4.30;;;;;21.10;102295.00;;;;2075111;28;20263;-60
2024/01/27 01:13:54;;;;;;;9.00;5.30;;;;;20.70;102294.00;;;;2057700;28;20357;-59
2024/01/27 01:14:54;;;;;;;8.17;4.40;;;;;21.10;102286.00;;;;2065729;28;20217;-61
2024/01/27 01:15:55;;;;;;;8.60;4.50;;;;;21.10;102301.00;;;;2068875;28;20225;-63
2024/01/27 01:16:55;;;;;;;10.53;4.93;;;;;21.10;102296.00;;;;2074589;28;20220;-62
2024/01/27 01:17:55;;;;;;;6.80;4.60;;;;;21.10;102296.00;;;;2078343;28;20223;-62
2024/01/27 01:18:56;;;;;;;8.63;4.60;;;;;21.10;102295.00;;;;2056651;28;20284;-60
2024/01/27 01:19:56;;;;;;;7.97;4.20;;;;;21.10;102294.00;;;;2067273;28;20293;-59
2024/01/27 01:20:56;;;;;;;8.30;4.70;;;;;21.10;102295.00;;;;2066262;28;20218;-60
2024/01/27 01:21:57;;;;;;;9.73;4.80;;;;;21.10;102297.00;;;;2067390;28;20213;-62
2024/01/27 01:22:57;;;;;;;8.63;4.50;;;;;21.10;102297.00;;;;2074020;28;20292;-60
2024/01/27 01:23:57;;;;;;;6.57;3.50;;;;;21.10;102293.00;;;;2062842;28;20241;-63
2024/01/27 01:24:58;;;;;;;15.03;3.97;;;;;21.10;102290.00;;;;2076486;28;20213;-63
2024/01/27 01:25:58;;;;;;;8.23;4.40;;;;;21.10;102294.00;;;;2056320;28;20300;-61
2024/01/27 01:26:59;;;;;;;6.53;3.80;;;;;21.10;102291.00;;;;2071825;28;20206;-59
2024/01/27 01:27:59;;;;;;;9.60;4.73;;;;;21.10;102289.00;;;;2073144;28;20332;-60
2024/01/27 01:29:00;;;;;;;6.97;3.70;;;;;21.10;102287.00;;;;2065820;28;20716;-63
2024/01/27 01:30:00;;;;;;;7.57;4.17;;;;;21.10;102295.00;;;;2076142;28;20209;-62
2024/01/27 01:31:00;;;;;;;8.83;4.10;;;;;21.10;102289.00;;;;2072883;28;20217;-59
2024/01/27 01:32:02;;;;;;;10.67;4.03;;;;;21.10;102291.00;;;;2070745;28;20263;-61
2024/01/27 01:33:03;;;;;;;7.35;3.65;;;;;21.10;102299.00;;;;2067543;28;20832;-60
2024/01/27 01:34:03;;;;;;;8.60;4.20;;;;;21.10;102297.00;;;;2066220;28;20236;-59
2024/01/27 01:35:04;;;;;;;6.53;3.83;;;;;21.10;102298.00;;;;2069534;28;20242;-62
2024/01/27 01:36:05;;;;;;;6.73;3.77;;;;;21.00;102303.00;;;;2073238;28;20222;-60
2024/01/27 01:37:05;;;;;;;8.13;4.07;;;;;21.00;102296.00;;;;2076749;28;20705;-63
2024/01/27 01:38:05;;;;;;;6.47;3.63;;;;;21.00;102294.00;;;;2075628;28;20693;-59
2024/01/27 01:39:06;;;;;;;9.17;4.53;;;;;21.00;102306.00;;;;2068184;28;20278;-59
2024/01/27 01:40:07;;;;;;;4.80;3.20;;;;;21.00;102301.00;;;;2067134;28;20215;-61
2024/01/27 01:41:07;;;;;;;6.17;3.80;;;;;21.00;102299.00;;;;2074665;28;20221;-60
2024/01/27 01:42:08;;;;;;;7.60;3.70;;;;;21.00;102300.00;;;;2070785;28;20462;-60
2024/01/27 01:43:12;;;;;;;6.93;4.00;;;;;21.00;102299.00;;;;2073903;28;20213;-60
2024/01/27 01:44:12;;;;;;;6.88;3.60;;;;;21.00;102295.00;;;;2063716;28;20218;-60
2024/01/27 01:45:12;;;;;;;5.83;3.10;;;;;21.00;102300.00;;;;2076174;28;20278;-63
2024/01/27 01:46:13;;;;;;;6.70;4.00;;;;;21.00;102294.00;;;;2077243;28;20206;-60
2024/01/27 01:47:13;;;;;;;7.80;3.40;;;;;21.00;102308.00;;;;2070423;28;20214;-60
2024/01/27 01:48:14;;;;;;;8.13;3.27;;;;;21.00;102297.00;;;;2075186;28;20209;-61
2024/01/27 01:49:14;;;;;;;6.63;3.33;;;;;21.00;102295.00;;;;2056039;28;20603;-59
2024/01/27 01:50:14;;;;;;;7.20;3.27;;;;;21.00;102285.00;;;;2068276;28;20245;-59
2024/01/27 01:51:16;;;;;;;6.57;3.57;;;;;21.00;102305.00;;;;2063605;28;20222;-64
2024/01/27 01:52:19;;;;;;;7.93;3.60;;;;;21.00;102299.00;;;;2067939;28;20218;-59
2024/01/27 01:53:20;;;;;;;4.97;3.00;;;;;21.00;102279.00;;;;2077697;28;20213;-59
2024/01/27 01:54:22;;;;;;;5.93;3.40;;;;;21.00;102300.00;;;;2045962;28;20712;-59
2024/01/27 01:55:22;;;;;;;5.50;3.05;;;;;21.00;102369.00;;;;2067416;28;20281;-60
2024/01/27 01:56:23;;;;;;;5.37;2.97;;;;;21.00;102295.00;;;;2066810;28;20672;-63
2024/01/27 01:57:23;;;;;;;5.20;3.30;;;;;21.00;102301.00;;;;2061208;28;20632;-60
2024/01/27 01:58:24;;;;;;;5.93;3.50;;;;;21.00;102300.00;;;;2074931;28;20213;-60
2024/01/27 01:59:24;;;;;;;4.93;2.90;;;;;21.00;102300.00;;;;2066848;28;20268;-60
2024/01/27 02:00:24;;;;;;;5.10;3.00;;;;;21.00;102299.00;;;;2077207;28;20844;-60
2024/01/27 02:01:25;;;;;;;5.57;3.33;;;;;20.90;102303.00;;;;2067446;28;20300;-61
2024/01/27 02:02:25;;;;;;;5.10;2.70;;;;;21.00;102295.00;;;;2070478;28;20927;-63
2024/01/27 02:03:26;;;;;;;8.17;3.40;;;;;21.00;102302.00;;;;2077889;28;20213;-62
2024/01/27 02:04:26;;;;;;;6.57;3.17;;;;;21.00;102301.00;;;;2055615;28;20223;-64
2024/01/27 02:05:26;;;;;;;6.30;3.40;;;;;21.00;102298.00;;;;2077345;28;20218;-61
2024/01/27 02:06:27;;;;;;;7.80;3.77;;;;;21.00;102308.00;;;;2067781;28;20202;-63
2024/01/27 02:07:27;;;;;;;6.37;3.37;;;;;20.90;102306.00;;;;2063233;28;20301;-59
2024/01/27 02:08:27;;;;;;;6.43;3.30;;;;;20.90;102304.00;;;;2077880;28;20205;-60
2024/01/27 02:09:28;;;;;;;8.73;3.43;;;;;21.00;102301.00;;;;2057689;28;20219;-63
2024/01/27 02:10:30;;;;;;;5.90;2.83;;;;;20.90;102310.00;;;;2077001;28;20289;-62
2024/01/27 02:11:30;;;;;;;6.63;2.75;;;;;20.90;102310.00;;;;2066922;28;20801;-62
2024/01/27 02:12:30;;;;;;;6.87;3.07;;;;;20.90;102307.00;;;;2077559;28;20222;-61
2024/01/27 02:13:31;;;;;;;6.03;3.03;;;;;20.90;102308.00;;;;2066577;28;20225;-61
2024/01/27 02:14:31;;;;;;;5.07;2.87;;;;;20.90;102309.00;;;;2069727;28;20305;-64
2024/01/27 02:15:31;;;;;;;5.97;2.63;;;;;20.90;102305.00;;;;2085051;28;20219;-61
2024/01/27 02:16:32;;;;;;;6.63;2.77;;;;;20.90;102309.00;;;;2068060;28;20730;-60
2024/01/27 02:17:32;;;;;;;6.67;2.63;;;;;20.90;102313.00;;;;2075660;28;20212;-63
2024/01/27 02:18:32;;;;;;;6.77;3.17;;;;;20.90;102312.00;;;;2062928;28;20221;-63
2024/01/27 02:19:33;;;;;;;6.30;3.00;;;;;20.90;102313.00;;;;2077918;28;20213;-59
2024/01/27 02:20:33;;;;;;;6.13;2.70;;;;;20.90;102319.00;;;;2068915;28;20245;-61
2024/01/27 02:21:33;;;;;;;6.40;2.90;;;;;20.90;102314.00;;;;2063119;28;20223;-61
2024/01/27 02:22:34;;;;;;;5.13;2.60;;;;;20.90;102315.00;;;;2067799;28;20210;-59
2024/01/27 02:23:35;;;;;;;4.73;2.57;;;;;20.90;102313.00;;;;2055092;28;20215;-62
2024/01/27 02:24:35;;;;;;;6.53;3.00;;;;;20.90;102314.00;;;;2075967;28;20488;-60
2024/01/27 02:25:35;;;;;;;7.63;2.90;;;;;20.90;102309.00;;;;2072422;28;20282;-60
2024/01/27 02:26:36;;;;;;;6.17;3.00;;;;;20.90;102313.00;;;;2078166;28;20263;-61
2024/01/27 02:27:36;;;;;;;6.07;2.73;;;;;20.90;102310.00;;;;2075474;28;20226;-60
2024/01/27 02:28:36;;;;;;;7.60;3.40;;;;;20.90;102309.00;;;;2054235;28;20245;-59
2024/01/27 02:29:37;;;;;;;4.77;2.77;;;;;20.90;102302.00;;;;2076239;28;20220;-64
2024/01/27 02:30:37;;;;;;;4.83;2.30;;;;;20.90;102307.00;;;;2067594;28;20215;-60
2024/01/27 02:31:37;;;;;;;6.60;2.20;;;;;20.90;102310.00;;;;2077454;28;20233;-60
2024/01/27 02:32:38;;;;;;;5.30;3.00;;;;;20.90;102300.00;;;;2074782;28;20255;-60
2024/01/27 02:33:38;;;;;;;5.07;2.47;;;;;20.90;102311.00;;;;2062202;28;20221;-63
2024/01/27 02:34:38;;;;;;;6.73;3.03;;;;;20.90;102296.00;;;;2083726;28;20256;-60
2024/01/27 02:35:39;;;;;;;5.33;3.00;;;;;20.90;102293.00;;;;2070556;28;20245;-59
2024/01/27 02:36:39;;;;;;;6.80;2.80;;;;;20.90;102306.00;;;;2064889;28;20233;-63
2024/01/27 02:37:40;;;;;;;7.40;2.90;;;;;20.80;102295.00;;;;2069600;28;20250;-62
2024/01/27 02:38:40;;;;;;;5.28;2.30;;;;;20.90;102307.00;;;;2066815;28;20213;-60
2024/01/27 02:39:41;;;;;;;7.00;2.97;;;;;20.90;102299.00;;;;2074843;28;20303;-62
2024/01/27 02:40:41;;;;;;;6.90;3.00;;;;;20.80;102303.00;;;;2069233;28;20218;-60
2024/01/27 02:41:41;;;;;;;5.13;2.77;;;;;20.80;102305.00;;;;2071662;28;20222;-63
2024/01/27 02:42:43;;;;;;;4.37;2.40;;;;;20.80;102301.00;;;;2068977;28;20230;-61
2024/01/27 02:43:43;;;;;;;5.22;2.47;;;;;20.80;102305.00;;;;2061079;28;20305;-61
2024/01/27 02:44:43;;;;;;;4.67;2.77;;;;;20.80;102301.00;;;;2069960;28;20202;-60
2024/01/27 02:45:44;;;;;;;5.73;2.70;;;;;20.80;102306.00;;;;2072016;28;20314;-64
2024/01/27 02:46:44;;;;;;;6.30;2.90;;;;;20.80;102304.00;;;;2075523;28;20205;-62
2024/01/27 02:47:44;;;;;;;8.83;2.50;;;;;20.80;102310.00;;;;2066359;28;20203;-61
2024/01/27 02:48:45;;;;;;;4.83;2.23;;;;;20.80;102300.00;;;;2066455;28;20847;-59
2024/01/27 02:49:45;;;;;;;3.40;2.20;;;;;20.80;102309.00;;;;2073007;28;20292;-59
2024/01/27 02:50:45;;;;;;;6.63;2.40;;;;;20.80;102309.00;;;;2076876;28;20210;-59
2024/01/27 02:51:47;;;;;;;5.47;2.67;;;;;20.80;102300.00;;;;2065785;28;20230;-59
2024/01/27 02:52:48;;;;;;;6.57;2.65;;;;;20.80;102298.00;;;;2066229;28;20599;-59
2024/01/27 02:53:48;;;;;;;4.73;2.57;;;;;20.80;102300.00;;;;2069319;28;20231;-61
2024/01/27 02:54:48;;;;;;;7.30;2.40;;;;;20.80;102305.00;;;;2077708;28;20209;-62
2024/01/27 02:55:49;;;;;;;6.60;2.50;;;;;20.80;102305.00;;;;2077579;28;20259;-60
2024/01/27 02:56:49;;;;;;;6.23;2.27;;;;;20.80;102309.00;;;;2066757;28;20234;-60
2024/01/27 02:57:49;;;;;;;6.13;2.33;;;;;20.80;102308.00;;;;2069270;28;20218;-60
2024/01/27 02:58:50;;;;;;;5.80;2.50;;;;;20.80;102311.00;;;;2062862;28;20271;-59
2024/01/27 02:59:50;;;;;;;5.70;2.60;;;;;20.80;102308.00;;;;2076880;28;20214;-59
2024/01/27 03:00:50;;;;;;;4.60;2.60;;;;;20.80;102314.00;;;;2071834;28;20221;-64
2024/01/27 03:01:51;;;;;;;5.73;2.63;;;;;20.80;102316.00;;;;2068825;28;20241;-60
2024/01/27 03:02:51;;;;;;;6.60;2.57;;;;;20.80;102312.00;;;;2076854;28;20209;-60
2024/01/27 03:03:52;;;;;;;4.53;2.50;;;;;20.80;102334.00;;;;2067005;28;20229;-64
2024/01/27 03:04:52;;;;;;;6.13;2.53;;;;;20.80;102308.00;;;;2073093;28;20974;-61
2024/01/27 03:05:52;;;;;;;4.30;2.43;;;;;20.80;102299.00;;;;2072405;28;20312;-60
2024/01/27 03:06:53;;;;;;;4.57;2.20;;;;;20.80;102309.00;;;;2073248;28;20227;-64
2024/01/27 03:07:53;;;;;;;5.03;2.40;;;;;20.80;102304.00;;;;2066019;28;20602;-63
2024/01/27 03:08:53;;;;;;;5.00;2.30;;;;;20.80;102316.00;;;;2066991;28;20969;-61
2024/01/27 03:09:54;;;;;;;5.63;2.50;;;;;20.80;102313.00;;;;2080180;28;20259;-62
2024/01/27 03:10:54;;;;;;;4.53;2.50;;;;;20.70;102310.00;;;;2082315;28;20213;-59
2024/01/27 03:11:54;;;;;;;6.13;2.57;;;;;20.80;102311.00;;;;2072211;28;20301;-60
2024/01/27 03:12:55;;;;;;;4.47;2.33;;;;;20.80;102299.00;;;;2071931;28;20288;-59
2024/01/27 03:13:55;;;;;;;4.97;1.80;;;;;20.70;102198.00;;;;2066540;28;20913;-60
2024/01/27 03:14:55;;;;;;;7.13;2.80;;;;;20.70;102306.00;;;;2066004;28;20985;-63
2024/01/27 03:15:56;;;;;;;4.17;2.07;;;;;20.70;102307.00;;;;2077158;28;20221;-61
2024/01/27 03:16:56;;;;;;;4.83;2.10;;;;;20.70;102305.00;;;;2073752;28;20932;-62
2024/01/27 03:17:57;;;;;;;5.03;2.50;;;;;20.70;102308.00;;;;2077107;28;20690;-59
2024/01/27 03:18:57;;;;;;;3.80;2.53;;;;;20.70;102312.00;;;;2061922;28;20222;-61
2024/01/27 03:19:57;;;;;;;5.77;2.87;;;;;20.70;102307.00;;;;2072574;28;20217;-59
2024/01/27 03:20:58;;;;;;;3.90;2.20;;;;;20.20;102311.00;;;;2077596;28;20224;-61
2024/01/27 03:21:58;;;;;;;5.93;2.47;;;;;20.70;102310.00;;;;2069452;28;20244;-62
2024/01/27 03:22:58;;;;;;;4.77;2.47;;;;;20.70;102313.00;;;;2077867;28;20209;-61
2024/01/27 03:23:59;;;;;;;5.10;2.70;;;;;20.70;102318.00;;;;2058574;28;20218;-60
2024/01/27 03:24:59;;;;;;;5.77;2.40;;;;;20.70;102317.00;;;;2071703;28;20221;-59
2024/01/27 03:25:59;;;;;;;4.13;2.30;;;;;20.70;102308.00;;;;2074564;28;20224;-59
2024/01/27 03:27:00;;;;;;;3.47;2.00;;;;;20.70;102312.00;;;;2061882;28;21038;-63
2024/01/27 03:28:00;;;;;;;5.37;2.43;;;;;20.70;102314.00;;;;2068770;28;20325;-62
2024/01/27 03:29:01;;;;;;;6.57;2.80;;;;;20.70;102309.00;;;;2063410;28;20209;-60
2024/01/27 03:30:01;;;;;;;4.30;2.20;;;;;20.70;102322.00;;;;2072921;28;20217;-60
2024/01/27 03:31:02;;;;;;;5.47;2.53;;;;;20.70;102307.00;;;;2066967;28;20230;-62
2024/01/27 03:32:02;;;;;;;4.53;2.03;;;;;20.70;102311.00;;;;2060765;28;20210;-63
2024/01/27 03:33:03;;;;;;;3.57;1.80;;;;;20.70;102313.00;;;;2071312;28;20252;-60
2024/01/27 03:34:03;;;;;;;6.83;2.70;;;;;20.70;102301.00;;;;2055130;28;20575;-60
2024/01/27 03:35:04;;;;;;;4.20;2.43;;;;;20.70;102303.00;;;;2072186;28;20213;-62
2024/01/27 03:36:10;;;;;;;4.33;2.30;;;;;20.70;102301.00;;;;2069090;28;20247;-63
2024/01/27 03:37:10;;;;;;;4.22;2.60;;;;;20.70;102307.00;;;;2076200;28;20300;-62
2024/01/27 03:38:10;;;;;;;4.13;1.87;;;;;20.60;102315.00;;;;2065871;28;21115;-63
2024/01/27 03:39:11;;;;;;;6.53;2.87;;;;;20.70;102303.00;;;;2061850;28;20286;-60
2024/01/27 03:40:11;;;;;;;3.23;2.03;;;;;20.70;102323.00;;;;2070836;28;20206;-59
2024/01/27 03:41:12;;;;;;;5.20;2.23;;;;;20.70;102308.00;;;;2062994;28;20734;-62
2024/01/27 03:42:12;;;;;;;4.23;2.23;;;;;20.60;102307.00;;;;2075593;28;20621;-61
2024/01/27 03:43:12;;;;;;;7.50;2.40;;;;;20.70;102300.00;;;;2073857;28;20584;-60
2024/01/27 03:44:13;;;;;;;5.27;2.27;;;;;20.70;102308.00;;;;2065026;28;20672;-63
2024/01/27 03:45:13;;;;;;;5.43;1.80;;;;;20.70;102319.00;;;;2069054;28;20586;-61
2024/01/27 03:46:13;;;;;;;3.80;2.00;;;;;20.70;102323.00;;;;2066813;28;20565;-62
2024/01/27 03:47:14;;;;;;;4.47;2.10;;;;;20.70;102313.00;;;;2059718;28;20222;-59
2024/01/27 03:48:14;;;;;;;5.63;2.40;;;;;20.70;102316.00;;;;2065993;28;20217;-59
2024/01/27 03:49:14;;;;;;;5.87;2.30;;;;;20.60;102321.00;;;;2057776;28;20218;-61
2024/01/27 03:50:15;;;;;;;4.10;2.17;;;;;20.60;102313.00;;;;2072096;28;20307;-59
2024/01/27 03:51:15;;;;;;;5.57;2.43;;;;;20.70;102320.00;;;;2082604;28;20217;-59
2024/01/27 03:52:15;;;;;;;5.93;2.03;;;;;20.60;102322.00;;;;2065525;28;20203;-62
2024/01/27 03:53:16;;;;;;;6.70;2.13;;;;;20.60;102328.00;;;;2066368;28;20218;-61
2024/01/27 03:54:16;;;;;;;4.50;1.97;;;;;20.60;102325.00;;;;2049817;28;20207;-60
2024/01/27 03:55:16;;;;;;;3.63;1.93;;;;;20.60;102318.00;;;;2069052;28;20249;-59
2024/01/27 03:56:17;;;;;;;4.57;2.23;;;;;20.60;102322.00;;;;2069567;28;20210;-60
2024/01/27 03:57:17;;;;;;;3.40;1.73;;;;;20.60;102332.00;;;;2073570;28;20237;-59
2024/01/27 03:58:17;;;;;;;3.63;1.97;;;;;20.70;102239.00;;;;2078588;28;20220;-60
2024/01/27 03:59:18;;;;;;;4.27;2.30;;;;;20.60;102335.00;;;;2052732;28;20617;-63
2024/01/27 04:00:18;;;;;;;5.57;2.30;;;;;20.70;102326.00;;;;2072127;28;20667;-64
2024/01/27 04:01:18;;;;;;;6.00;2.60;;;;;20.60;102330.00;;;;2068812;28;20659;-60
2024/01/27 04:02:19;;;;;;;4.13;2.10;;;;;20.60;102332.00;;;;2076328;28;20236;-61
2024/01/27 04:03:19;;;;;;;5.07;2.50;;;;;20.60;102327.00;;;;2077950;28;20213;-60
2024/01/27 04:04:19;;;;;;;5.43;2.20;;;;;20.60;102329.00;;;;2061565;28;20388;-59
2024/01/27 04:05:20;;;;;;;3.83;1.90;;;;;20.60;102337.00;;;;2063076;28;20722;-64
2024/01/27 04:06:20;;;;;;;4.10;2.10;;;;;20.60;102340.00;;;;2073437;28;20658;-63
2024/01/27 04:07:21;;;;;;;6.73;2.67;;;;;20.60;102349.00;;;;2069276;28;20731;-60
2024/01/27 04:08:21;;;;;;;5.97;2.47;;;;;20.60;102344.00;;;;2074983;28;20686;-59
2024/01/27 04:09:21;;;;;;;3.93;2.00;;;;;20.60;102336.00;;;;2064357;28;20567;-61
2024/01/27 04:10:22;;;;;;;4.87;2.00;;;;;20.60;102340.00;;;;2072519;28;20291;-59
2024/01/27 04:11:22;;;;;;;3.50;2.10;;;;;20.60;102336.00;;;;2078099;28;20213;-61
2024/01/27 04:12:23;;;;;;;5.00;2.13;;;;;20.60;102339.00;;;;2066405;28;20211;-60
2024/01/27 04:13:23;;;;;;;5.00;2.20;;;;;20.60;102341.00;;;;2066603;28;20214;-60
2024/01/27 04:14:24;;;;;;;5.33;2.30;;;;;20.60;102344.00;;;;2056858;28;20225;-59
2024/01/27 04:15:24;;;;;;;5.00;2.20;;;;;20.60;102339.00;;;;2075691;28;20241;-59
2024/01/27 04:16:24;;;;;;;5.40;2.33;;;;;20.60;102349.00;;;;2077464;28;20218;-60
2024/01/27 04:17:25;;;;;;;4.50;2.30;;;;;20.60;102340.00;;;;2075756;28;20209;-62
2024/01/27 04:18:25;;;;;;;6.43;2.80;;;;;20.60;102344.00;;;;2077964;28;20213;-62
2024/01/27 04:19:25;;;;;;;4.20;1.87;;;;;20.60;102342.00;;;;2056550;28;20831;-60
2024/01/27 04:20:26;;;;;;;5.00;2.30;;;;;20.50;102341.00;;;;2083164;28;20580;-60
2024/01/27 04:21:26;;;;;;;5.70;1.90;;;;;20.60;102341.00;;;;2074964;28;20602;-60
2024/01/27 04:22:26;;;;;;;4.20;2.10;;;;;20.60;102340.00;;;;2077270;28;20947;-60
2024/01/27 04:23:27;;;;;;;4.87;2.03;;;;;20.60;102382.00;;;;2076476;28;20661;-64
2024/01/27 04:24:27;;;;;;;7.30;2.47;;;;;20.60;102342.00;;;;2064145;28;20566;-63
2024/01/27 04:25:27;;;;;;;4.10;2.10;;;;;20.60;102338.00;;;;2079091;28;20238;-60
2024/01/27 04:26:28;;;;;;;6.10;2.30;;;;;20.50;102343.00;;;;2065231;28;20600;-60
2024/01/27 04:27:28;;;;;;;5.10;2.13;;;;;20.50;102349.00;;;;2060922;28;20587;-59
2024/01/27 04:28:30;;;;;;;3.50;1.93;;;;;20.50;102347.00;;;;2068769;28;20540;-59
2024/01/27 04:29:30;;;;;;;6.28;2.65;;;;;20.60;102340.00;;;;2082104;28;20216;-59
2024/01/27 04:30:30;;;;;;;4.53;1.67;;;;;20.50;102336.00;;;;2081528;28;20384;-61
2024/01/27 04:31:31;;;;;;;5.20;2.53;;;;;20.50;102343.00;;;;2077510;28;21391;-60
2024/01/27 04:32:31;;;;;;;6.33;2.37;;;;;20.50;102333.00;;;;2078945;28;20290;-64
2024/01/27 04:33:32;;;;;;;3.90;2.00;;;;;20.50;102332.00;;;;2054144;28;20300;-62
2024/01/27 04:34:32;;;;;;;6.00;2.13;;;;;20.50;102338.00;;;;2076197;28;20210;-60
2024/01/27 04:35:33;;;;;;;3.97;1.80;;;;;20.50;102336.00;;;;2070736;28;20211;-59
2024/01/27 04:36:33;;;;;;;4.13;1.90;;;;;20.50;102349.00;;;;2077713;28;20218;-59
2024/01/27 04:37:34;;;;;;;4.60;2.23;;;;;20.50;102340.00;;;;2075684;28;20220;-64
2024/01/27 04:38:34;;;;;;;3.53;1.80;;;;;20.50;102333.00;;;;2067565;28;20264;-60
2024/01/27 04:39:34;;;;;;;4.50;1.80;;;;;20.50;102330.00;;;;2071378;28;20210;-60
2024/01/27 04:40:37;;;;;;;6.10;2.70;;;;;20.50;102337.00;;;;2069193;28;20214;-59
2024/01/27 04:41:42;;;;;;;6.75;2.28;;;;;20.10;102338.00;;;;2078043;28;20213;-64
2024/01/27 04:42:43;;;;;;;4.03;2.10;;;;;20.50;102347.00;;;;2072195;28;20642;-61
2024/01/27 04:43:43;;;;;;;4.63;2.30;;;;;20.50;102339.00;;;;2066392;28;20228;-63
2024/01/27 04:44:43;;;;;;;4.73;2.00;;;;;20.50;102337.00;;;;2070595;28;20743;-60
2024/01/27 04:45:44;;;;;;;3.70;2.00;;;;;20.50;102329.00;;;;2077190;28;20225;-59
2024/01/27 04:46:44;;;;;;;4.17;2.00;;;;;20.50;102343.00;;;;2078096;28;20225;-63
2024/01/27 04:47:44;;;;;;;4.00;2.10;;;;;20.50;102339.00;;;;2069896;28;20699;-64
2024/01/27 04:48:45;;;;;;;6.20;2.50;;;;;20.50;102333.00;;;;2067882;28;20734;-60
2024/01/27 04:49:45;;;;;;;4.20;2.00;;;;;20.50;102338.00;;;;2068355;28;20215;-59
2024/01/27 04:50:46;;;;;;;3.50;1.93;;;;;20.50;102340.00;;;;2076682;28;20225;-60
2024/01/27 04:51:46;;;;;;;4.68;2.35;;;;;20.50;102342.00;;;;2074917;28;20242;-63
2024/01/27 04:52:47;;;;;;;7.77;2.20;;;;;20.50;102340.00;;;;2077904;28;20240;-60
2024/01/27 04:53:47;;;;;;;3.67;1.60;;;;;20.50;102336.00;;;;2065528;28;20209;-61
2024/01/27 04:54:47;;;;;;;5.27;2.20;;;;;20.50;102332.00;;;;2069053;28;20240;-60
2024/01/27 04:55:48;;;;;;;3.67;2.00;;;;;20.50;102345.00;;;;2078569;28;20210;-60
2024/01/27 04:56:48;;;;;;;4.20;1.70;;;;;20.50;102338.00;;;;2069332;28;20214;-59
2024/01/27 04:57:48;;;;;;;4.10;1.83;;;;;20.50;102345.00;;;;2078058;28;20209;-60